Time;durP1;ratioP1;P1;durP2;ratioP2;P2;SDS_P1;SDS_P2;PMS_P1;PMS_P2;Temp;Humidity;BMP_temperature;BMP_pressure;BME280_temperature;BME280_humidity;BME280_pressure;Samples;Min_cycle;Max_cycle;Signal;HPM_P1;HPM_P2
2021/12/05 00:24:33;;;;;;;8.35;5.35;;;;;;;9.11;87.67;99393.38;5139825;27;20034;-63
2021/12/05 00:27:14;;;;;;;11.52;7.32;;;;;;;9.08;87.39;99386.59;5145100;27;20031;-67
2021/12/05 00:29:50;;;;;;;23.00;13.93;;;;;;;9.25;87.05;99390.09;5141065;27;20023;-63
2021/12/05 00:32:22;;;;;;;17.90;12.18;;;;;;;9.25;86.80;99390.94;5125476;28;20031;-67
2021/12/05 00:48:40;;;;;;;;;;;;;;;9.09;87.29;99388.25;5142199;27;20034;-63
2021/12/05 00:57:14;;;;;;;8.52;5.80;;;;;;;8.61;88.79;99373.91;5134592;27;20273;-66
2021/12/05 01:09:38;;;;;;;8.57;5.72;;;;;;;8.32;91.33;99378.63;5139407;27;20337;-65
2021/12/05 01:17:22;;;;;;;10.48;5.00;;;;;;;8.08;91.83;99391.69;5137638;27;20061;-66
2021/12/05 01:19:48;;;;;;;8.95;5.07;;;;;;;7.93;92.85;99388.78;5139243;27;20035;-63
2021/12/05 01:22:18;;;;;;;7.80;4.50;;;;;;;7.89;93.35;99390.06;5138573;27;20032;-63
2021/12/05 01:27:27;;;;;;;10.05;5.07;;;;;;;7.68;94.83;99369.31;5135780;27;20084;-63
2021/12/05 01:30:01;;;;;;;8.77;5.30;;;;;;;7.69;94.89;99363.88;5136528;27;20047;-63
2021/12/05 01:40:44;;;;;;;8.43;5.25;;;;;;;7.58;94.58;99369.41;5133046;27;20226;-66
2021/12/05 01:59:27;;;;;;;5.78;4.40;;;;;;;7.22;96.00;99359.81;5134217;27;20011;-64
2021/12/05 02:15:15;;;;;;;8.80;5.18;;;;;;;7.22;95.83;99357.19;5135516;27;20015;-64
2021/12/05 02:15:51;;;;;;;7.47;4.68;;;;;;;7.25;95.79;99357.72;5134690;27;20023;-67
2021/12/05 02:43:03;;;;;;;16.20;5.63;;;;;;;8.01;91.75;99334.28;5138011;27;20057;-67
2021/12/05 02:45:29;;;;;;;7.78;5.40;;;;;;;7.89;90.53;99329.44;5142555;27;20031;-63
2021/12/05 02:47:55;;;;;;;8.13;4.85;;;;;;;7.84;90.92;99329.06;5139827;27;20064;-66
2021/12/05 02:50:25;;;;;;;10.13;5.28;;;;;;;7.62;91.85;99323.31;5137309;27;20228;-63
2021/12/05 02:52:56;;;;;;;9.82;6.18;;;;;;;7.58;92.23;99329.88;5117587;27;20031;-63
2021/12/05 02:55:35;;;;;;;8.63;5.53;;;;;;;7.55;92.77;99313.53;5136492;27;20027;-65
2021/12/05 02:58:03;;;;;;;7.70;4.97;;;;;;;7.45;93.91;99326.81;5135096;27;20027;-63
2021/12/05 03:00:41;;;;;;;7.05;4.68;;;;;;;7.38;94.44;99317.03;5137259;27;20205;-67
2021/12/05 03:03:19;;;;;;;11.20;5.43;;;;;;;7.26;95.46;99322.50;5136841;27;20035;-66
2021/12/05 03:05:50;;;;;;;8.48;5.75;;;;;;;7.22;96.67;99323.78;5133930;27;20040;-67
2021/12/05 03:08:16;;;;;;;8.70;5.05;;;;;;;7.31;95.56;99324.72;5136045;27;20129;-63
2021/12/05 03:10:43;;;;;;;8.18;5.00;;;;;;;6.96;95.92;99313.16;5135111;27;20035;-66
2021/12/05 03:13:08;;;;;;;8.88;4.85;;;;;;;7.11;96.20;99321.38;5142313;27;20023;-66
2021/12/05 03:15:34;;;;;;;6.88;4.50;;;;;;;7.20;95.89;99330.19;5140630;27;20066;-67
2021/12/05 03:18:00;;;;;;;9.45;5.82;;;;;;;7.32;94.99;99321.94;5135807;27;20189;-66
2021/12/05 03:20:25;;;;;;;12.02;6.50;;;;;;;7.41;93.94;99333.34;5137616;27;20313;-66
2021/12/05 03:22:52;;;;;;;8.52;5.63;;;;;;;7.37;93.73;99316.22;5135788;27;20034;-64
2021/12/05 03:25:17;;;;;;;8.15;5.38;;;;;;;7.43;94.53;99330.56;5136402;27;20037;-63
2021/12/05 03:27:43;;;;;;;7.28;5.30;;;;;;;7.58;93.55;99331.69;5136687;27;20091;-67
2021/12/05 03:30:11;;;;;;;7.78;5.05;;;;;;;7.45;92.90;99316.28;5135318;27;20042;-66
2021/12/05 03:32:38;;;;;;;7.10;5.05;;;;;;;7.56;92.33;99318.66;5136341;27;20019;-63
2021/12/05 03:35:07;;;;;;;10.45;4.75;;;;;;;7.66;92.29;99326.47;5135877;27;20094;-63
2021/12/05 03:37:32;;;;;;;9.45;4.60;;;;;;;7.68;91.76;99325.34;5135132;27;20353;-66
2021/12/05 03:39:58;;;;;;;6.25;4.10;;;;;;;7.79;91.75;99320.78;5136230;27;20095;-63
2021/12/05 03:42:24;;;;;;;10.70;5.22;;;;;;;7.86;92.04;99330.56;5135822;28;20053;-63
2021/12/05 03:44:50;;;;;;;7.65;5.10;;;;;;;7.93;91.95;99323.69;5135265;28;20082;-66
2021/12/05 03:47:16;;;;;;;6.53;4.40;;;;;;;7.76;92.07;99321.94;5112186;28;20090;-67
2021/12/05 03:49:41;;;;;;;9.38;4.90;;;;;;;7.70;91.21;99309.38;5134980;28;20306;-66
2021/12/05 03:52:10;;;;;;;7.18;4.78;;;;;;;7.63;92.46;99324.97;5136532;27;20049;-63
2021/12/05 03:54:37;;;;;;;7.60;4.70;;;;;;;7.79;91.48;99323.44;5138867;27;20063;-66
2021/12/05 03:57:03;;;;;;;7.32;4.53;;;;;;;7.82;91.48;99323.13;5122283;27;20064;-64
2021/12/05 03:59:29;;;;;;;7.35;4.18;;;;;;;7.60;91.98;99332.34;5122031;27;20313;-66
2021/12/05 04:01:56;;;;;;;8.82;5.07;;;;;;;7.47;92.88;99331.94;5139267;27;20048;-63
2021/12/05 04:04:22;;;;;;;7.90;4.93;;;;;;;7.56;91.64;99331.84;5138032;27;20023;-63
2021/12/05 04:06:48;;;;;;;7.70;5.07;;;;;;;7.59;92.61;99341.25;5139433;27;20069;-67
2021/12/05 04:09:16;;;;;;;7.47;4.75;;;;;;;7.71;92.68;99347.91;5141284;27;20368;-67
2021/12/05 04:11:47;;;;;;;7.95;5.25;;;;;;;7.56;92.06;99349.44;5137541;27;20031;-63
2021/12/05 04:14:14;;;;;;;10.60;5.07;;;;;;;7.75;91.69;99351.91;5147555;27;20023;-67
2021/12/05 04:16:42;;;;;;;8.63;5.32;;;;;;;7.68;92.10;99362.22;5128196;27;20245;-65
2021/12/05 04:19:08;;;;;;;10.15;5.28;;;;;;;7.88;90.85;99362.88;5147000;27;20026;-63
2021/12/05 04:21:36;;;;;;;9.82;6.22;;;;;;;7.79;90.82;99353.25;5147300;27;20091;-63
2021/12/05 04:24:04;;;;;;;7.90;5.45;;;;;;;7.80;90.55;99362.81;5146725;27;20022;-66
2021/12/05 04:26:29;;;;;;;7.15;5.05;;;;;;;7.80;91.11;99370.72;5146769;27;20027;-63
2021/12/05 04:28:55;;;;;;;10.85;5.18;;;;;;;7.75;91.38;99367.72;5146957;27;20094;-63
2021/12/05 04:31:21;;;;;;;7.80;5.05;;;;;;;7.88;90.78;99364.69;5146885;27;20050;-66
2021/12/05 04:33:49;;;;;;;11.60;5.32;;;;;;;7.92;90.25;99381.84;5146918;27;20044;-66
2021/12/05 04:36:15;;;;;;;7.65;4.88;;;;;;;8.01;89.03;99358.00;5147041;27;20027;-67
2021/12/05 04:38:41;;;;;;;11.27;5.53;;;;;;;8.10;88.85;99371.25;5146938;27;20094;-66
2021/12/05 04:41:06;;;;;;;12.95;5.25;;;;;;;8.00;89.35;99360.81;5146563;27;20098;-63
2021/12/05 04:43:37;;;;;;;10.60;6.20;;;;;;;8.05;89.13;99363.81;5128411;27;20016;-63
2021/12/05 04:46:11;;;;;;;11.73;7.25;;;;;;;7.85;89.65;99357.91;5146457;27;20263;-63
2021/12/05 04:48:38;;;;;;;13.98;6.80;;;;;;;7.72;91.26;99367.19;5146454;27;20068;-67
2021/12/05 04:51:05;;;;;;;11.95;6.50;;;;;;;7.76;91.19;99373.81;5146259;27;20236;-64
2021/12/05 04:53:31;;;;;;;9.95;6.20;;;;;;;7.86;90.78;99361.38;5146078;27;20051;-66
2021/12/05 04:55:57;;;;;;;10.77;6.57;;;;;;;8.02;89.57;99358.84;5146620;27;20068;-63
2021/12/05 04:58:24;;;;;;;16.83;6.90;;;;;;;8.13;89.13;99366.50;5144931;27;20049;-63
2021/12/05 05:00:52;;;;;;;16.05;7.80;;;;;;;8.19;89.40;99363.25;5138523;27;20038;-67
2021/12/05 05:03:18;;;;;;;14.63;8.00;;;;;;;8.32;88.75;99373.38;5137673;27;20030;-67
2021/12/05 05:05:51;;;;;;;14.65;7.30;;;;;;;8.36;88.42;99373.94;5138038;27;20038;-67
2021/12/05 05:08:18;;;;;;;13.87;7.20;;;;;;;8.47;87.70;99382.41;5136425;27;20099;-67
2021/12/05 05:10:44;;;;;;;12.25;6.78;;;;;;;8.48;88.18;99385.88;5137451;27;20092;-67
2021/12/05 05:13:09;;;;;;;12.45;6.03;;;;;;;8.71;86.81;99394.06;5138294;27;20251;-63
2021/12/05 05:15:35;;;;;;;14.23;6.28;;;;;;;8.63;86.56;99393.03;5137623;27;20086;-63
2021/12/05 05:18:02;;;;;;;9.23;5.70;;;;;;;8.74;84.88;99391.94;5136829;27;20015;-63
2021/12/05 05:46:55;;;;;;;15.80;8.30;;;;;;;8.47;86.18;99405.34;5138429;27;20328;-66
2021/12/05 05:51:49;;;;;;;14.15;8.50;;;;;;;8.55;85.59;99398.28;5136016;27;20088;-63
2021/12/05 05:54:15;;;;;;;17.27;10.18;;;;;;;8.59;85.68;99390.88;5119983;27;20019;-63
2021/12/05 05:56:43;;;;;;;25.70;14.07;;;;;;;8.56;86.24;99401.75;5136762;27;20024;-63
2021/12/05 05:59:34;;;;;;;25.90;15.65;;;;;;;8.56;86.15;99402.56;5137360;27;20042;-64
2021/12/05 06:04:35;;;;;;;23.13;15.48;;;;;;;8.50;86.97;99399.75;5136843;27;20221;-63
2021/12/05 06:07:00;;;;;;;21.00;11.90;;;;;;;8.72;87.18;99419.47;5119190;27;20023;-63
2021/12/05 06:09:26;;;;;;;18.60;9.38;;;;;;;8.93;85.63;99415.44;5136217;27;20038;-67
2021/12/05 06:11:51;;;;;;;16.35;9.13;;;;;;;8.81;85.83;99414.06;5136906;27;20321;-64
2021/12/05 06:14:17;;;;;;;16.50;6.40;;;;;;;9.04;84.37;99418.78;5137383;27;20039;-63
2021/12/05 06:16:42;;;;;;;17.85;6.97;;;;;;;9.18;83.40;99412.88;5142268;27;20027;-67
2021/12/05 06:19:08;;;;;;;12.30;6.53;;;;;;;9.33;82.27;99427.09;5141248;27;20064;-67
2021/12/05 06:21:34;;;;;;;13.52;7.03;;;;;;;8.98;83.19;99430.81;5134634;27;20061;-67
2021/12/05 06:24:00;;;;;;;13.52;7.90;;;;;;;8.88;84.05;99441.50;5136058;27;20213;-65
2021/12/05 06:26:26;;;;;;;13.48;7.15;;;;;;;9.00;83.89;99438.56;5136702;27;20031;-67
2021/12/05 06:29:06;;;;;;;17.63;8.15;;;;;;;8.96;84.67;99435.41;5137151;27;20278;-66
2021/12/05 06:39:59;;;;;;;18.40;8.18;;;;;;;9.14;84.35;99449.34;5134454;27;20188;-63
2021/12/05 06:47:53;;;;;;;17.08;6.55;;;;;;;9.40;83.12;99453.75;5142476;27;20221;-63
2021/12/05 06:50:18;;;;;;;14.93;6.63;;;;;;;9.36;82.91;99447.09;5138850;27;20062;-66
2021/12/05 06:52:44;;;;;;;16.45;6.25;;;;;;;9.46;82.67;99453.09;5137892;27;20074;-67
2021/12/05 06:55:14;;;;;;;17.30;7.25;;;;;;;9.18;83.53;99452.50;5136425;27;20024;-63
2021/12/05 06:57:40;;;;;;;16.92;7.18;;;;;;;9.12;84.13;99459.25;5133446;27;20382;-63
2021/12/05 07:00:14;;;;;;;22.30;8.38;;;;;;;9.05;84.36;99468.78;5135226;27;20031;-66
2021/12/05 07:02:40;;;;;;;;;;;;;;;9.22;83.80;99470.50;5134533;27;20023;-67
2021/12/05 07:08:08;;;;;;;15.20;7.90;;;;;;;8.66;84.89;99457.06;5042152;28;20037;-67
2021/12/05 07:10:41;;;;;;;15.70;8.52;;;;;;;8.61;86.14;99457.53;5114508;27;20047;-64
2021/12/05 07:15:58;;;;;;;23.38;9.85;;;;;;;8.51;87.30;99460.28;5133999;27;20038;-64
2021/12/05 07:24:12;;;;;;;16.23;8.88;;;;;;;8.36;87.07;99455.72;5045051;28;20331;-66
2021/12/05 07:40:28;;;;;;;16.20;8.75;;;;;;;8.00;90.58;99445.19;5136008;27;20110;-67
2021/12/05 07:43:07;;;;;;;19.73;9.93;;;;;;;8.10;90.65;99453.00;5133097;28;20042;-66
2021/12/05 07:45:50;;;;;;;13.43;7.22;;;;;;;8.13;89.67;99453.53;5141730;28;20031;-66
2021/12/05 07:48:25;;;;;;;17.65;8.73;;;;;;;7.76;91.73;99444.97;5138270;28;20033;-66
2021/12/05 07:51:10;;;;;;;;;;;;;;;7.74;92.14;99447.75;5133445;27;20048;-66
2021/12/05 07:53:50;;;;;;;18.05;8.73;;;;;;;7.73;92.65;99445.28;5135297;28;19919;-63
2021/12/05 07:56:33;;;;;;;16.42;9.18;;;;;;;7.86;92.09;99451.00;5133106;27;20030;-67
2021/12/05 08:17:38;;;;;;;22.40;11.32;;;;;;;8.39;90.42;99452.78;5141772;28;19963;-64
2021/12/05 08:20:11;;;;;;;18.23;9.02;;;;;;;8.66;89.58;99447.31;5140666;28;20365;-67
2021/12/05 08:22:36;;;;;;;21.92;10.35;;;;;;;8.92;86.89;99455.22;5139012;28;20055;-67
2021/12/05 08:25:13;;;;;;;20.25;9.45;;;;;;;8.97;86.96;99452.91;5142312;28;20316;-67
2021/12/05 08:27:44;;;;;;;16.00;9.38;;;;;;;8.85;87.05;99447.09;5140082;28;20035;-67
2021/12/05 08:30:14;;;;;;;19.42;9.65;;;;;;;8.82;88.73;99450.03;5142821;28;20098;-63
2021/12/05 09:24:17;;;;;;;30.35;13.15;;;;;;;9.89;84.32;99415.81;5135174;27;20060;-67
2021/12/05 10:08:37;;;;;;;41.47;17.75;;;;;;;10.05;83.40;99375.28;5089069;27;20050;-63
2021/12/05 10:19:03;;;;;;;42.38;18.45;;;;;;;9.60;85.22;99359.94;5138594;27;20201;-63
2021/12/05 10:27:22;;;;;;;47.00;19.67;;;;;;;10.14;83.08;99352.28;5134911;27;20271;-67
2021/12/05 10:38:48;;;;;;;45.67;20.10;;;;;;;10.71;80.64;99347.69;5119285;27;20318;-66
2021/12/05 10:41:46;;;;;;;45.65;19.50;;;;;;;10.52;81.76;99341.00;5135814;27;20255;-67
2021/12/05 10:44:11;;;;;;;45.70;20.08;;;;;;;10.22;83.42;99336.44;5142535;27;20432;-67
2021/12/05 10:46:39;;;;;;;54.85;21.63;;;;;;;10.38;82.85;99327.59;5138829;27;20039;-64
2021/12/05 10:49:12;;;;;;;50.53;21.98;;;;;;;10.40;82.15;99337.06;5135148;27;20024;-63
2021/12/05 10:51:41;;;;;;;49.20;22.08;;;;;;;10.59;80.88;99325.25;5133761;27;20050;-63
2021/12/05 10:54:11;;;;;;;46.95;22.15;;;;;;;10.47;81.62;99324.78;5136667;27;20036;-67
2021/12/05 10:56:36;;;;;;;47.08;21.98;;;;;;;10.56;82.08;99320.28;5134503;27;20034;-67
2021/12/05 10:59:14;;;;;;;49.75;23.10;;;;;;;10.91;80.83;99307.53;5136636;27;20320;-66
2021/12/05 11:01:55;;;;;;;54.30;23.88;;;;;;;10.92;80.99;99293.28;5136725;27;20356;-67
2021/12/05 11:04:28;;;;;;;54.38;23.83;;;;;;;10.79;80.94;99292.03;5135134;27;20058;-63
2021/12/05 11:06:57;;;;;;;52.55;24.40;;;;;;;10.81;80.20;99289.22;5134972;27;20075;-63
2021/12/05 11:09:30;;;;;;;52.38;23.30;;;;;;;10.86;80.91;99285.03;5133287;27;20324;-67
2021/12/05 11:11:57;;;;;;;56.72;25.63;;;;;;;10.48;82.47;99273.50;5135857;27;20070;-67
2021/12/05 11:14:27;;;;;;;55.35;25.52;;;;;;;10.92;81.11;99283.53;5142116;27;20106;-64
2021/12/05 11:16:57;;;;;;;51.97;24.25;;;;;;;10.83;80.94;99281.91;5139812;27;20039;-67
2021/12/05 11:19:27;;;;;;;47.30;23.10;;;;;;;10.87;79.71;99283.22;5135709;27;20064;-64
2021/12/05 11:22:18;;;;;;;49.63;22.52;;;;;;;10.94;80.00;99280.69;5139054;27;20030;-67
2021/12/05 11:24:48;;;;;;;51.00;23.27;;;;;;;11.11;78.49;99272.47;5138977;27;20217;-63
2021/12/05 11:27:25;;;;;;;45.30;22.70;;;;;;;10.98;79.33;99263.44;5142039;27;20027;-63
2021/12/05 11:29:54;;;;;;;46.28;22.25;;;;;;;10.89;79.75;99260.03;5135027;27;20042;-67
2021/12/05 11:32:35;;;;;;;48.63;22.95;;;;;;;11.07;79.06;99265.88;5132919;27;20031;-63
2021/12/05 11:35:25;;;;;;;48.05;22.88;;;;;;;11.30;79.66;99268.50;5133202;27;20043;-67
2021/12/05 11:38:03;;;;;;;48.42;22.65;;;;;;;11.45;78.73;99276.53;5133169;27;20102;-67
2021/12/05 11:40:42;;;;;;;49.72;23.92;;;;;;;11.50;78.21;99268.84;5133712;27;20212;-63
2021/12/05 11:43:10;;;;;;;40.47;20.35;;;;;;;11.54;76.80;99274.63;5133451;27;20054;-67
2021/12/05 11:46:04;;;;;;;37.78;21.00;;;;;;;11.39;77.07;99271.91;5135756;28;20221;-66
2021/12/05 11:48:35;;;;;;;45.92;20.08;;;;;;;11.15;77.92;99273.75;5133277;28;20228;-66
2021/12/05 11:51:16;;;;;;;39.35;20.80;;;;;;;11.00;78.63;99266.75;5136582;28;20044;-63
2021/12/05 11:53:45;;;;;;;39.70;20.40;;;;;;;11.16;78.69;99259.50;5132048;28;20031;-67
2021/12/05 11:56:18;;;;;;;43.55;21.48;;;;;;;11.18;77.87;99265.44;5134540;28;20067;-63
2021/12/05 11:58:45;;;;;;;42.85;22.13;;;;;;;11.23;77.32;99262.25;5134767;28;20270;-64
2021/12/05 12:01:14;;;;;;;43.40;21.60;;;;;;;11.15;77.70;99255.19;5138051;27;20035;-67
2021/12/05 12:03:40;;;;;;;43.58;21.08;;;;;;;11.48;77.79;99247.81;5141624;28;20027;-67
2021/12/05 12:06:07;;;;;;;41.20;21.55;;;;;;;11.35;76.90;99244.94;5137714;28;20035;-66
2021/12/05 12:08:32;;;;;;;41.83;21.15;;;;;;;11.33;76.36;99238.16;5116438;28;20053;-63
2021/12/05 12:11:01;;;;;;;36.90;19.25;;;;;;;11.35;76.41;99239.63;5135620;28;20035;-63
2021/12/05 12:13:35;;;;;;;43.30;21.08;;;;;;;11.33;76.75;99249.59;5134761;27;20046;-63
2021/12/05 12:16:07;;;;;;;47.03;22.10;;;;;;;11.50;76.61;99242.34;5138831;27;20031;-65
2021/12/05 12:18:41;;;;;;;46.40;21.63;;;;;;;11.63;76.36;99247.84;5136816;27;20030;-67
2021/12/05 12:21:17;;;;;;;47.88;22.98;;;;;;;11.76;75.55;99240.09;5140122;27;20098;-64
2021/12/05 12:23:43;;;;;;;38.10;21.20;;;;;;;11.55;76.06;99234.66;5132286;27;20162;-67
2021/12/05 12:26:10;;;;;;;43.70;22.67;;;;;;;11.45;76.34;99229.63;5138982;27;20043;-67
2021/12/05 12:28:36;;;;;;;37.95;20.45;;;;;;;11.46;76.70;99223.31;5146992;27;20035;-67
2021/12/05 12:31:32;;;;;;;37.90;18.02;;;;;;;11.32;77.58;99225.91;5128136;27;20031;-63
2021/12/05 12:34:02;;;;;;;53.00;25.23;;;;;;;11.32;77.53;99225.91;5146947;27;20194;-67
2021/12/05 12:36:37;;;;;;;39.92;21.98;;;;;;;11.24;77.00;99225.97;5147078;27;20176;-63
2021/12/05 12:39:43;;;;;;;32.97;19.13;;;;;;;11.23;77.14;99225.16;5128052;27;20019;-67
2021/12/05 12:42:16;;;;;;;36.75;18.45;;;;;;;11.09;77.99;99223.28;5145901;27;20148;-67
2021/12/05 12:45:13;;;;;;;45.88;22.10;;;;;;;11.14;77.35;99218.28;5146551;27;20082;-67
2021/12/05 12:47:51;;;;;;;36.28;18.63;;;;;;;11.19;78.10;99214.09;5145683;27;20100;-63
2021/12/05 12:50:53;;;;;;;37.53;19.38;;;;;;;11.24;77.63;99221.50;5128130;27;20367;-63
2021/12/05 12:53:37;;;;;;;33.90;18.88;;;;;;;11.29;76.90;99231.56;5102854;27;20054;-64
2021/12/05 12:56:18;;;;;;;33.53;18.10;;;;;;;11.32;77.11;99225.91;5146801;27;20023;-66
2021/12/05 12:58:48;;;;;;;35.38;18.60;;;;;;;11.21;77.97;99232.47;5146476;27;20046;-63
2021/12/05 13:10:09;;;;;;;35.67;18.65;;;;;;;11.21;77.11;99229.81;5145402;27;20060;-64
2021/12/05 13:12:56;;;;;;;34.05;17.40;;;;;;;11.06;77.35;99228.94;5145209;27;20064;-67
2021/12/05 13:15:36;;;;;;;32.17;17.27;;;;;;;11.04;78.89;99221.19;5128105;27;20042;-63
2021/12/05 13:18:05;;;;;;;36.67;17.92;;;;;;;11.29;76.13;99228.91;5144716;27;20329;-67
2021/12/05 13:20:42;;;;;;;32.60;17.73;;;;;;;11.20;76.40;99234.28;5145079;27;20035;-67
2021/12/05 13:23:08;;;;;;;32.67;16.98;;;;;;;11.15;76.75;99241.94;5144276;27;20140;-63
2021/12/05 13:26:04;;;;;;;33.88;18.50;;;;;;;11.22;76.73;99233.28;5144437;27;20239;-63
2021/12/05 13:28:40;;;;;;;33.13;17.45;;;;;;;11.36;76.77;99230.69;5143844;27;20046;-63
2021/12/05 13:31:35;;;;;;;28.80;17.15;;;;;;;11.27;76.54;99231.75;5144531;27;20039;-63
2021/12/05 13:34:18;;;;;;;31.13;16.70;;;;;;;11.19;76.13;99215.91;5141575;27;20042;-67
2021/12/05 13:36:47;;;;;;;38.30;18.93;;;;;;;10.98;77.27;99219.25;5144536;27;20031;-63
2021/12/05 13:39:49;;;;;;;37.58;18.00;;;;;;;10.86;78.46;99215.34;5144392;27;20022;-67
2021/12/05 13:42:34;;;;;;;30.52;18.05;;;;;;;10.97;77.47;99212.28;5144782;27;20031;-63
2021/12/05 13:44:59;;;;;;;31.92;17.88;;;;;;;10.87;78.32;99214.34;5144568;27;20080;-63
2021/12/05 13:47:29;;;;;;;32.35;18.30;;;;;;;10.63;79.21;99211.88;5144188;27;20086;-67
2021/12/05 13:49:56;;;;;;;31.58;17.98;;;;;;;10.70;78.40;99226.06;5165300;27;20324;-67
2021/12/05 13:52:36;;;;;;;37.25;18.50;;;;;;;10.80;78.78;99224.00;5146285;27;20035;-63
2021/12/05 13:55:42;;;;;;;29.88;17.67;;;;;;;10.80;78.11;99227.47;5165162;27;20030;-64
2021/12/05 13:58:19;;;;;;;32.70;18.65;;;;;;;10.86;78.05;99232.06;5146525;27;20082;-67
2021/12/05 14:00:51;;;;;;;30.25;17.40;;;;;;;11.05;76.83;99228.13;5165035;27;20109;-63
2021/12/05 14:03:53;;;;;;;29.67;16.73;;;;;;;11.27;76.82;99222.97;5165085;27;20079;-64
2021/12/05 14:06:38;;;;;;;31.63;17.75;;;;;;;11.42;75.28;99219.34;5165215;27;20038;-67
2021/12/05 14:09:11;;;;;;;30.80;18.30;;;;;;;11.47;75.18;99209.06;5164689;27;20026;-67
2021/12/05 14:11:43;;;;;;;34.17;18.30;;;;;;;11.01;76.51;99216.22;5165084;27;20031;-67
2021/12/05 14:14:09;;;;;;;29.60;17.17;;;;;;;10.92;77.70;99219.13;5146266;27;20033;-63
2021/12/05 14:16:40;;;;;;;32.28;17.55;;;;;;;10.86;78.20;99223.31;5164670;27;20244;-67
2021/12/05 14:19:13;;;;;;;33.50;18.30;;;;;;;10.73;78.79;99231.00;5142718;27;20346;-67
2021/12/05 14:21:47;;;;;;;29.25;18.02;;;;;;;10.67;78.67;99227.22;5144176;27;20092;-63
2021/12/05 14:24:13;;;;;;;33.88;19.38;;;;;;;10.55;79.31;99231.28;5143696;27;20055;-67
2021/12/05 14:26:40;;;;;;;38.83;21.73;;;;;;;10.40;80.06;99239.13;5136416;27;20042;-63
2021/12/05 14:29:15;;;;;;;44.05;24.13;;;;;;;10.22;80.38;99236.72;5133697;27;20336;-64
2021/12/05 14:31:44;;;;;;;42.83;22.50;;;;;;;10.23;80.52;99235.72;5134738;27;20335;-67
2021/12/05 14:34:11;;;;;;;39.08;20.73;;;;;;;10.17;81.39;99238.19;5135900;27;20101;-67
2021/12/05 14:36:44;;;;;;;37.55;19.98;;;;;;;10.07;82.29;99237.56;5132708;27;20114;-67
2021/12/05 14:39:35;;;;;;;35.92;20.02;;;;;;;9.95;82.94;99237.09;5135563;27;20034;-67
2021/12/05 14:42:24;;;;;;;40.65;22.58;;;;;;;9.89;83.48;99235.16;5134073;27;20301;-67
2021/12/05 14:44:53;;;;;;;38.58;21.25;;;;;;;9.76;84.13;99233.03;5114436;27;20098;-67
2021/12/05 14:47:28;;;;;;;37.08;20.67;;;;;;;9.71;84.48;99238.00;5118367;27;20023;-67
2021/12/05 14:49:57;;;;;;;39.58;22.08;;;;;;;9.66;85.09;99242.16;5135786;27;20039;-63
2021/12/05 14:52:31;;;;;;;44.47;23.42;;;;;;;9.70;85.59;99239.00;5132304;27;20026;-66
2021/12/05 14:54:59;;;;;;;42.38;21.60;;;;;;;9.84;84.29;99240.13;5133681;27;20035;-67
2021/12/05 14:57:28;;;;;;;41.97;21.25;;;;;;;9.73;84.96;99243.94;5136568;27;20201;-66
2021/12/05 15:00:11;;;;;;;43.28;23.63;;;;;;;9.71;85.81;99240.66;5134121;27;20043;-67
2021/12/05 15:02:39;;;;;;;51.15;24.65;;;;;;;9.49;87.53;99239.53;5135561;27;20027;-63
2021/12/05 15:05:13;;;;;;;44.95;24.20;;;;;;;9.52;88.02;99248.94;5133598;27;20039;-63
2021/12/05 15:07:38;;;;;;;46.13;24.25;;;;;;;9.60;87.72;99235.72;5134572;27;20030;-63
2021/12/05 15:10:05;;;;;;;48.33;24.48;;;;;;;9.71;87.59;99248.56;5135040;27;20039;-63
2021/12/05 15:12:33;;;;;;;50.03;24.83;;;;;;;9.72;87.58;99257.34;5134469;27;20443;-67
2021/12/05 15:15:02;;;;;;;46.97;23.52;;;;;;;9.73;87.79;99259.81;5134388;27;20084;-67
2021/12/05 15:17:33;;;;;;;46.25;24.95;;;;;;;9.95;87.06;99271.50;5136058;27;20038;-63
2021/12/05 15:20:04;;;;;;;49.45;25.83;;;;;;;9.99;87.88;99271.97;5137576;27;20039;-63
2021/12/05 15:22:29;;;;;;;55.58;27.05;;;;;;;10.19;85.39;99274.06;5132566;27;20304;-63
2021/12/05 15:24:58;;;;;;;56.15;28.70;;;;;;;10.16;85.15;99268.28;5134537;27;20042;-67
2021/12/05 15:27:26;;;;;;;51.25;26.95;;;;;;;9.95;86.09;99260.09;5134691;27;20031;-66
2021/12/05 15:29:58;;;;;;;51.67;26.67;;;;;;;9.99;86.31;99261.41;5133549;27;20451;-63
2021/12/05 15:32:28;;;;;;;52.38;27.55;;;;;;;10.01;86.12;99276.09;5134618;27;20037;-66
2021/12/05 15:34:58;;;;;;;56.13;27.33;;;;;;;10.10;85.45;99282.19;5133803;27;20055;-66
2021/12/05 15:37:24;;;;;;;50.05;25.75;;;;;;;10.14;86.23;99275.56;5118195;27;20080;-66
2021/12/05 15:39:53;;;;;;;49.35;27.25;;;;;;;10.22;86.02;99275.56;5133309;27;20035;-66
2021/12/05 15:42:28;;;;;;;55.58;27.48;;;;;;;10.29;85.35;99270.41;5131524;27;20340;-66
2021/12/05 15:44:57;;;;;;;49.45;27.27;;;;;;;10.00;86.45;99258.59;5133184;27;20182;-64
2021/12/05 15:47:29;;;;;;;45.85;24.48;;;;;;;9.83;86.36;99227.91;5135214;27;20317;-63
2021/12/05 15:50:11;;;;;;;50.35;25.42;;;;;;;9.99;87.48;99264.88;5141809;27;20144;-63
2021/12/05 15:52:41;;;;;;;44.95;23.48;;;;;;;9.96;88.17;99274.97;5145585;27;20035;-63
2021/12/05 15:55:15;;;;;;;46.40;24.58;;;;;;;10.04;87.47;99273.13;5149320;27;20316;-66
2021/12/05 15:57:45;;;;;;;44.08;24.00;;;;;;;10.12;86.73;99273.09;5149594;27;20038;-63
2021/12/05 16:00:24;;;;;;;45.95;24.00;;;;;;;10.14;86.74;99267.63;5149027;27;20080;-67
2021/12/05 16:03:05;;;;;;;40.95;23.75;;;;;;;10.15;86.55;99266.63;5149904;27;20031;-63
2021/12/05 16:05:32;;;;;;;41.45;23.92;;;;;;;10.22;86.20;99264.97;5149291;27;20059;-67
2021/12/05 16:08:16;;;;;;;47.97;24.40;;;;;;;10.13;87.07;99273.91;5148732;27;20061;-67
2021/12/05 16:10:45;;;;;;;43.95;25.65;;;;;;;10.24;86.38;99269.09;5149133;27;20055;-63
2021/12/05 16:13:12;;;;;;;45.35;24.58;;;;;;;10.24;86.75;99276.22;5149160;27;20100;-67
2021/12/05 16:15:39;;;;;;;48.90;24.67;;;;;;;10.23;86.98;99288.63;5148776;27;20054;-64
2021/12/05 16:18:06;;;;;;;45.45;25.27;;;;;;;10.30;87.22;99282.66;5130498;27;20023;-67
2021/12/05 16:21:05;;;;;;;46.47;25.48;;;;;;;10.50;86.27;99286.56;5148948;27;20059;-64
2021/12/05 16:23:39;;;;;;;40.50;22.60;;;;;;;10.74;84.42;99286.44;5130324;27;20070;-63
2021/12/05 16:26:13;;;;;;;;;;;;;;;10.66;84.80;99280.38;5149408;27;20030;-67
2021/12/05 16:28:44;;;;;;;43.00;22.98;;;;;;;10.80;84.38;99275.16;5148820;27;19911;-63
2021/12/05 16:31:15;;;;;;;44.97;23.38;;;;;;;10.58;85.47;99269.81;5149351;27;20098;-63
2021/12/05 16:33:44;;;;;;;45.80;25.00;;;;;;;10.39;86.63;99282.44;5148989;27;20027;-66
2021/12/05 16:36:10;;;;;;;46.50;25.58;;;;;;;10.25;86.87;99277.88;5148614;27;20034;-63
2021/12/05 16:38:38;;;;;;;43.15;24.15;;;;;;;10.22;87.22;99280.84;5148999;27;21689;-63
2021/12/05 16:41:09;;;;;;;43.45;24.75;;;;;;;10.23;87.36;99283.34;5148905;27;20042;-63
2021/12/05 16:43:44;;;;;;;48.60;24.55;;;;;;;10.25;87.47;99291.09;5148553;27;20089;-63
2021/12/05 16:46:16;;;;;;;45.00;24.02;;;;;;;10.31;87.64;99289.59;5149018;27;20062;-67
2021/12/05 16:48:43;;;;;;;41.08;23.05;;;;;;;10.30;87.94;99295.88;5149148;27;20072;-63
2021/12/05 16:51:18;;;;;;;45.38;24.02;;;;;;;10.39;86.90;99292.22;5148314;27;20243;-67
2021/12/05 16:53:47;;;;;;;41.90;23.85;;;;;;;10.48;86.45;99289.38;5148843;27;20094;-67
2021/12/05 16:56:17;;;;;;;40.53;23.25;;;;;;;10.64;85.18;99293.78;5148993;27;20029;-67
2021/12/05 16:58:43;;;;;;;47.88;23.80;;;;;;;10.68;85.00;99276.53;5148572;27;20030;-67
2021/12/05 17:01:20;;;;;;;47.08;24.70;;;;;;;10.65;85.41;99287.47;5144462;27;20274;-67
2021/12/05 17:03:46;;;;;;;42.33;23.95;;;;;;;10.63;86.39;99286.00;5145418;27;20269;-66
2021/12/05 17:06:14;;;;;;;41.88;23.33;;;;;;;10.58;85.92;99273.28;5145328;27;20031;-66
2021/12/05 17:08:44;;;;;;;43.97;25.17;;;;;;;10.58;85.78;99278.59;5145704;27;20027;-63
2021/12/05 17:11:12;;;;;;;46.25;23.10;;;;;;;10.74;85.69;99286.44;5145654;27;20027;-63
2021/12/05 17:13:39;;;;;;;42.72;21.70;;;;;;;10.80;84.66;99276.97;5145204;27;20194;-67
2021/12/05 17:16:15;;;;;;;38.55;20.98;;;;;;;10.74;84.96;99270.56;5145413;27;20212;-63
2021/12/05 17:19:02;;;;;;;38.08;20.88;;;;;;;10.64;85.42;99261.19;5145588;27;20027;-63
2021/12/05 17:21:34;;;;;;;44.40;22.25;;;;;;;10.54;85.60;99256.09;5145114;27;20055;-63
2021/12/05 17:24:12;;;;;;;41.78;21.48;;;;;;;10.44;86.67;99258.97;5155727;27;20054;-65